createdAt,value
2023-05-13T00:02:02.278Z,9.26
2023-05-13T00:04:30.787Z,9.29
2023-05-13T00:06:59.280Z,9.32
2023-05-13T00:09:28.077Z,9.23
2023-05-13T00:11:56.699Z,9.07
2023-05-13T00:14:25.094Z,8.84
2023-05-13T00:16:53.382Z,8.57
2023-05-13T00:19:23.175Z,8.47
2023-05-13T00:21:51.571Z,8.31
2023-05-13T00:24:20.411Z,8.21
2023-05-13T00:26:48.721Z,8.36
2023-05-13T00:29:17.390Z,8.43
2023-05-13T00:31:46.049Z,8.57
2023-05-13T00:34:14.590Z,8.47
2023-05-13T00:36:46.342Z,8.43
2023-05-13T00:39:14.770Z,8.32
2023-05-13T00:41:43.078Z,8.12
2023-05-13T00:44:13.870Z,8.39
2023-05-13T00:46:43.777Z,8.31
2023-05-13T00:49:12.360Z,8.19
2023-05-13T00:51:40.739Z,8.33
2023-05-13T00:54:10.667Z,8.17
2023-05-13T00:56:39.457Z,8.07
2023-05-13T00:59:07.793Z,8.04
2023-05-13T01:01:45.559Z,8.02
2023-05-13T01:04:20.243Z,7.95
2023-05-13T01:07:03.692Z,8.24
2023-05-13T01:09:39.674Z,8.18
2023-05-13T01:12:15.296Z,8.26
2023-05-13T01:14:46.623Z,8.22
2023-05-13T01:17:17.062Z,8.36
2023-05-13T01:19:48.261Z,8.33
2023-05-13T01:22:18.602Z,8.46
2023-05-13T01:24:47.106Z,8.49
2023-05-13T01:27:15.796Z,8.52
2023-05-13T01:29:44.486Z,8.47
2023-05-13T01:32:14.926Z,8.40
2023-05-13T01:34:44.867Z,8.34
2023-05-13T01:37:13.836Z,8.35
2023-05-13T01:39:44.566Z,8.30
2023-05-13T01:42:16.077Z,8.10
2023-05-13T01:44:45.331Z,8.13
2023-05-13T01:47:15.838Z,8.30
2023-05-13T01:49:44.406Z,8.46
2023-05-13T01:52:13.399Z,8.47
2023-05-13T01:54:42.714Z,8.37
2023-05-13T01:57:16.215Z,8.35
2023-05-13T01:59:44.869Z,8.78
2023-05-13T02:02:13.863Z,10.51
2023-05-13T02:04:42.474Z,12.16
2023-05-13T02:07:11.110Z,12.93
2023-05-13T02:09:39.824Z,13.62
2023-05-13T02:12:09.272Z,14.07
2023-05-13T02:14:39.469Z,14.83
2023-05-13T02:17:07.989Z,14.22
2023-05-13T02:19:36.728Z,15.47
2023-05-13T02:22:05.603Z,16.24
2023-05-13T02:24:35.397Z,16.82
2023-05-13T02:27:03.866Z,15.99
2023-05-13T02:29:32.561Z,14.98
2023-05-13T02:32:02.456Z,14.23
2023-05-13T02:34:31.242Z,15.03
2023-05-13T02:37:00.185Z,12.03
2023-05-13T02:39:28.976Z,10.98
2023-05-13T02:42:00.131Z,10.23
2023-05-13T02:44:33.530Z,10.30
2023-05-13T02:47:04.839Z,10.00
2023-05-13T02:49:33.341Z,9.89
2023-05-13T02:52:01.792Z,9.95
2023-05-13T02:54:34.886Z,10.02
2023-05-13T02:57:03.413Z,10.00
2023-05-13T02:59:31.937Z,9.97
2023-05-13T03:02:00.381Z,9.99
2023-05-13T03:04:30.492Z,9.97
2023-05-13T03:06:59.102Z,9.96
2023-05-13T03:09:27.743Z,10.02
2023-05-13T03:11:56.333Z,9.96
2023-05-13T03:14:24.669Z,10.03
2023-05-13T03:16:53.190Z,10.09
2023-05-13T03:19:21.691Z,10.13
2023-05-13T03:21:51.651Z,10.13
2023-05-13T03:24:20.448Z,10.12
2023-05-13T03:26:50.782Z,10.14
2023-05-13T03:29:19.236Z,10.22
2023-05-13T03:31:48.065Z,10.24
2023-05-13T03:34:16.579Z,10.35
2023-05-13T03:36:45.460Z,10.40
2023-05-13T03:39:16.478Z,10.50
2023-05-13T03:41:45.832Z,10.59
2023-05-13T03:44:14.634Z,10.67
2023-05-13T03:46:43.685Z,10.73
2023-05-13T03:49:12.453Z,10.89
2023-05-13T03:51:40.910Z,11.08
2023-05-13T03:54:09.713Z,11.42
2023-05-13T03:56:39.639Z,11.64
2023-05-13T03:59:08.037Z,11.85
2023-05-13T04:01:37.834Z,11.97
2023-05-13T04:04:06.421Z,12.09
2023-05-13T04:06:34.852Z,12.18
2023-05-13T04:09:05.945Z,12.20
2023-05-13T04:11:34.430Z,12.27
2023-05-13T04:14:04.635Z,12.31
2023-05-13T04:16:33.299Z,12.42
2023-05-13T04:19:02.574Z,12.53
2023-05-13T04:21:31.553Z,12.64
2023-05-13T04:23:59.946Z,12.68
2023-05-13T04:26:28.472Z,12.78
2023-05-13T04:28:56.860Z,12.89
2023-05-13T04:31:28.454Z,13.04
2023-05-13T04:33:58.263Z,13.11
2023-05-13T04:36:27.028Z,13.23
2023-05-13T04:38:58.310Z,13.33
2023-05-13T04:41:30.516Z,13.32
2023-05-13T04:43:59.074Z,13.36
2023-05-13T04:46:29.118Z,13.42
2023-05-13T04:48:57.915Z,13.45
2023-05-13T04:51:26.548Z,13.68
2023-05-13T04:53:55.849Z,13.80
2023-05-13T04:56:26.136Z,13.89
2023-05-13T04:58:55.204Z,13.91
2023-05-13T05:01:24.222Z,13.94
2023-05-13T05:03:54.231Z,14.03
2023-05-13T05:06:22.994Z,14.10
2023-05-13T05:08:55.191Z,14.21
2023-05-13T05:11:25.821Z,14.30
2023-05-13T05:13:54.784Z,14.32
2023-05-13T05:16:23.713Z,14.43
2023-05-13T05:18:53.653Z,14.54
2023-05-13T05:21:22.752Z,14.67
2023-05-13T05:23:51.638Z,14.78
2023-05-13T05:26:20.747Z,14.84
2023-05-13T05:28:49.590Z,14.97
2023-05-13T05:31:19.096Z,15.06
2023-05-13T05:33:48.107Z,15.15
2023-05-13T05:36:18.026Z,15.28
2023-05-13T05:38:47.451Z,15.40
2023-05-13T05:41:17.586Z,15.50
2023-05-13T05:43:47.613Z,15.63
2023-05-13T05:46:16.987Z,15.69
2023-05-13T05:48:45.488Z,15.74
2023-05-13T05:51:15.121Z,15.85
2023-05-13T05:53:44.973Z,15.99
2023-05-13T05:56:15.411Z,16.00
2023-05-13T05:58:46.058Z,16.09
2023-05-13T06:01:14.445Z,16.20
2023-05-13T06:03:43.147Z,16.28
2023-05-13T06:06:11.679Z,16.35
2023-05-13T06:08:40.184Z,16.53
2023-05-13T06:11:11.118Z,16.58
2023-05-13T06:13:39.757Z,16.63
2023-05-13T06:16:08.314Z,16.78
2023-05-13T06:18:40.384Z,16.88
2023-05-13T06:21:10.225Z,16.98
2023-05-13T06:23:38.912Z,17.09
2023-05-13T06:26:07.433Z,16.99
2023-05-13T06:28:38.408Z,17.12
2023-05-13T06:31:06.975Z,17.10
2023-05-13T06:33:35.586Z,17.07
2023-05-13T06:36:09.411Z,17.26
2023-05-13T06:38:38.253Z,17.48
2023-05-13T06:41:06.727Z,17.37
2023-05-13T06:43:38.886Z,17.26
2023-05-13T06:46:22.903Z,17.21
2023-05-13T06:48:53.784Z,17.44
2023-05-13T06:51:22.173Z,17.55
2023-05-13T06:53:50.757Z,17.71
2023-05-13T06:56:19.077Z,17.70
2023-05-13T06:58:49.012Z,17.65
2023-05-13T07:01:18.118Z,17.72
2023-05-13T07:03:47.251Z,17.91
2023-05-13T07:06:15.971Z,17.92
2023-05-13T07:08:44.505Z,17.90
2023-05-13T07:11:12.936Z,17.87
2023-05-13T07:13:41.358Z,17.81
2023-05-13T07:16:11.476Z,17.88
2023-05-13T07:18:39.998Z,17.78
2023-05-13T07:21:08.307Z,17.76
2023-05-13T07:23:37.055Z,17.92
2023-05-13T07:26:05.882Z,17.97
2023-05-13T07:28:37.272Z,18.14
2023-05-13T07:31:06.296Z,18.19
2023-05-13T07:33:37.199Z,18.24
2023-05-13T07:36:07.066Z,18.18
2023-05-13T07:38:35.478Z,18.41
2023-05-13T07:41:04.133Z,18.49
2023-05-13T07:43:35.142Z,18.41
2023-05-13T07:46:04.277Z,18.58
2023-05-13T07:48:32.749Z,18.73
2023-05-13T07:51:02.986Z,18.74
2023-05-13T07:53:31.757Z,18.56
2023-05-13T07:56:00.198Z,18.69
2023-05-13T07:58:28.904Z,18.66
2023-05-13T08:00:57.579Z,18.63
2023-05-13T08:03:26.197Z,18.56
2023-05-13T08:05:55.233Z,18.66
2023-05-13T08:08:25.605Z,18.70
2023-05-13T08:10:53.949Z,18.73
2023-05-13T08:13:22.742Z,18.62
2023-05-13T08:15:52.071Z,18.94
2023-05-13T08:18:21.933Z,18.92
2023-05-13T08:20:50.592Z,18.96
2023-05-13T08:23:18.967Z,18.91
2023-05-13T08:25:48.808Z,18.98
2023-05-13T08:28:17.359Z,19.17
2023-05-13T08:30:45.833Z,18.98
2023-05-13T08:33:14.654Z,19.15
2023-05-13T08:35:44.784Z,19.32
2023-05-13T08:38:13.401Z,19.38
2023-05-13T08:40:43.199Z,19.28
2023-05-13T08:43:16.783Z,19.35
2023-05-13T08:45:47.801Z,19.42
2023-05-13T08:48:17.305Z,19.40
2023-05-13T08:50:46.112Z,19.40
2023-05-13T08:53:14.827Z,19.49
2023-05-13T08:55:43.488Z,19.30
2023-05-13T08:58:13.559Z,19.42
2023-05-13T09:00:44.275Z,19.43
2023-05-13T09:03:13.510Z,19.53
2023-05-13T09:05:43.497Z,19.60
2023-05-13T09:08:12.847Z,19.52
2023-05-13T09:10:41.360Z,19.48
2023-05-13T09:13:09.824Z,19.51
2023-05-13T09:15:43.172Z,19.64
2023-05-13T09:18:12.860Z,19.50
2023-05-13T09:20:41.374Z,19.36
2023-05-13T09:23:11.489Z,19.58
2023-05-13T09:25:40.379Z,19.36
2023-05-13T09:28:09.264Z,19.50
2023-05-13T09:30:40.447Z,19.79
2023-05-13T09:33:11.379Z,19.70
2023-05-13T09:35:42.195Z,19.56
2023-05-13T09:38:16.211Z,19.82
2023-05-13T09:40:52.022Z,19.90
2023-05-13T09:43:22.469Z,19.58
2023-05-13T09:45:55.609Z,20.10
2023-05-13T09:48:26.728Z,19.90
2023-05-13T09:50:56.276Z,19.78
2023-05-13T09:53:26.966Z,19.80
2023-05-13T09:55:57.529Z,19.99
2023-05-13T09:58:29.152Z,19.93
2023-05-13T10:00:59.910Z,20.05
2023-05-13T10:03:29.706Z,19.90
2023-05-13T10:05:59.398Z,19.98
2023-05-13T10:08:29.781Z,20.09
2023-05-13T10:10:58.387Z,20.16
2023-05-13T10:13:27.810Z,20.04
2023-05-13T10:15:58.375Z,19.96
2023-05-13T10:18:29.113Z,19.90
2023-05-13T10:20:58.424Z,20.23
2023-05-13T10:23:30.706Z,20.11
2023-05-13T10:26:00.792Z,20.14
2023-05-13T10:28:29.413Z,20.17
2023-05-13T10:30:59.178Z,20.32
2023-05-13T10:33:29.644Z,20.42
2023-05-13T10:36:11.521Z,20.30
2023-05-13T10:38:54.509Z,20.45
2023-05-13T10:41:41.690Z,20.43
2023-05-13T10:44:10.346Z,20.39
2023-05-13T10:46:40.258Z,20.46
2023-05-13T10:49:15.412Z,20.44
2023-05-13T10:51:46.516Z,20.46
2023-05-13T10:54:20.348Z,20.45
2023-05-13T10:56:58.290Z,20.34
2023-05-13T10:59:30.657Z,20.54
2023-05-13T11:02:02.800Z,20.58
2023-05-13T11:04:31.723Z,20.65
2023-05-13T11:07:15.914Z,20.50
2023-05-13T11:09:50.622Z,20.51
2023-05-13T11:12:21.011Z,20.78
2023-05-13T11:14:49.802Z,20.60
2023-05-13T11:17:21.298Z,20.69
2023-05-13T11:19:52.223Z,20.50
2023-05-13T11:22:22.889Z,20.80
2023-05-13T11:25:07.806Z,20.80
2023-05-13T11:27:41.471Z,20.67
2023-05-13T11:30:26.000Z,20.74
2023-05-13T11:32:56.861Z,20.55
2023-05-13T11:35:26.843Z,20.60
2023-05-13T11:37:56.981Z,20.85
2023-05-13T11:40:28.873Z,20.88
2023-05-13T11:42:57.551Z,20.83
2023-05-13T11:45:26.999Z,20.96
2023-05-13T11:47:57.812Z,20.98
2023-05-13T11:50:29.997Z,20.96
2023-05-13T11:52:59.872Z,21.06
2023-05-13T11:55:29.336Z,21.25
2023-05-13T11:57:57.933Z,21.01
2023-05-13T12:00:27.437Z,21.12
2023-05-13T12:02:58.968Z,21.03
2023-05-13T12:05:28.278Z,20.99
2023-05-13T12:07:58.648Z,21.23
2023-05-13T12:10:28.088Z,21.29
2023-05-13T12:12:56.622Z,21.48
2023-05-13T12:15:25.819Z,21.12
2023-05-13T12:17:54.929Z,21.39
2023-05-13T12:20:26.109Z,21.13
2023-05-13T12:22:57.157Z,21.17
2023-05-13T12:25:42.666Z,21.05
2023-05-13T12:28:13.417Z,21.16
2023-05-13T12:30:43.248Z,21.32
2023-05-13T12:33:16.873Z,21.22
2023-05-13T12:35:49.528Z,21.22
2023-05-13T12:38:19.304Z,21.11
2023-05-13T12:40:48.588Z,21.11
2023-05-13T12:43:18.896Z,21.09
2023-05-13T12:45:48.585Z,21.32
2023-05-13T12:48:17.016Z,21.31
2023-05-13T12:50:48.001Z,21.36
2023-05-13T12:53:16.879Z,21.16
2023-05-13T12:55:45.188Z,21.36
2023-05-13T12:58:14.137Z,21.17
2023-05-13T13:00:42.592Z,21.37
2023-05-13T13:03:11.230Z,21.47
2023-05-13T13:05:39.952Z,21.34
2023-05-13T13:08:09.923Z,21.41
2023-05-13T13:10:38.324Z,21.39
2023-05-13T13:13:06.851Z,21.41
2023-05-13T13:15:35.588Z,21.36
2023-05-13T13:18:04.358Z,21.34
2023-05-13T13:20:32.785Z,21.46
2023-05-13T13:23:02.178Z,21.52
2023-05-13T13:25:35.143Z,21.40
2023-05-13T13:28:03.850Z,21.47
2023-05-13T13:30:32.353Z,21.35
2023-05-13T13:33:00.968Z,21.56
2023-05-13T13:35:29.442Z,21.64
2023-05-13T13:37:57.989Z,21.54
2023-05-13T13:40:26.363Z,21.31
2023-05-13T13:42:56.350Z,21.55
2023-05-13T13:45:24.773Z,21.67
2023-05-13T13:47:53.414Z,21.77
2023-05-13T13:50:24.109Z,21.86
2023-05-13T13:52:53.274Z,21.85
2023-05-13T13:55:22.044Z,21.84
2023-05-13T13:57:50.776Z,22.03
2023-05-13T14:00:21.170Z,21.89
2023-05-13T14:02:50.108Z,21.88
2023-05-13T14:05:20.669Z,21.89
2023-05-13T14:07:53.753Z,21.70
2023-05-13T14:10:22.658Z,21.70
2023-05-13T14:12:51.150Z,21.81
2023-05-13T14:15:21.036Z,21.83
2023-05-13T14:17:50.352Z,21.96
2023-05-13T14:20:18.992Z,22.00
2023-05-13T14:22:49.951Z,22.11
2023-05-13T14:25:18.948Z,22.00
2023-05-13T14:27:49.200Z,21.91
2023-05-13T14:30:17.738Z,21.74
2023-05-13T14:32:47.743Z,21.70
2023-05-13T14:35:17.101Z,22.00
2023-05-13T14:37:45.449Z,22.05
2023-05-13T14:40:14.410Z,22.21
2023-05-13T14:42:42.763Z,22.34
2023-05-13T14:45:15.974Z,22.21
2023-05-13T14:47:49.806Z,22.24
2023-05-13T14:50:18.801Z,22.14
2023-05-13T14:52:47.144Z,22.22
2023-05-13T14:55:16.215Z,22.15
2023-05-13T14:57:44.586Z,22.13
2023-05-13T15:00:14.886Z,22.01
2023-05-13T15:02:43.498Z,22.02
2023-05-13T15:05:13.833Z,22.05
2023-05-13T15:07:42.423Z,21.82
2023-05-13T15:10:11.890Z,21.73
2023-05-13T15:12:40.379Z,21.49
2023-05-13T15:15:10.187Z,21.45
2023-05-13T15:17:38.841Z,21.37
2023-05-13T15:20:08.841Z,21.29
2023-05-13T15:22:38.647Z,21.19
2023-05-13T15:25:08.422Z,21.14
2023-05-13T15:27:36.849Z,21.03
2023-05-13T15:30:05.718Z,21.04
2023-05-13T15:32:34.626Z,20.94
2023-05-13T15:35:03.192Z,20.82
2023-05-13T15:37:33.644Z,20.84
2023-05-13T15:40:04.594Z,20.81
2023-05-13T15:42:33.224Z,20.85
2023-05-13T15:45:01.693Z,20.84
2023-05-13T15:47:35.026Z,20.80
2023-05-13T15:50:03.892Z,20.79
2023-05-13T15:52:35.762Z,20.73
2023-05-13T15:55:07.199Z,20.66
2023-05-13T15:57:36.063Z,20.64
2023-05-13T16:00:05.328Z,20.62
2023-05-13T16:02:39.444Z,20.61
2023-05-13T16:05:08.850Z,20.59
2023-05-13T16:07:37.475Z,20.61
2023-05-13T16:10:08.531Z,20.66
2023-05-13T16:12:37.369Z,20.63
2023-05-13T16:15:06.919Z,20.55
2023-05-13T16:17:35.866Z,20.51
2023-05-13T16:20:04.709Z,20.46
2023-05-13T16:22:36.122Z,20.47
2023-05-13T16:25:08.968Z,20.39
2023-05-13T16:27:39.899Z,20.30
2023-05-13T16:30:10.678Z,20.31
2023-05-13T16:32:39.210Z,20.24
2023-05-13T16:35:10.078Z,20.14
2023-05-13T16:37:38.917Z,20.01
2023-05-13T16:40:08.760Z,19.94
2023-05-13T16:42:38.811Z,19.91
2023-05-13T16:45:08.700Z,19.83
2023-05-13T16:47:37.179Z,19.74
2023-05-13T16:50:08.688Z,19.70
2023-05-13T16:52:37.568Z,19.68
2023-05-13T16:55:07.314Z,19.57
2023-05-13T16:57:41.613Z,19.53
2023-05-13T17:00:14.533Z,19.51
2023-05-13T17:02:43.482Z,19.44
2023-05-13T17:05:12.064Z,19.42
2023-05-13T17:07:40.793Z,19.34
2023-05-13T17:10:10.073Z,19.18
2023-05-13T17:12:38.734Z,19.27
2023-05-13T17:15:08.484Z,19.21
2023-05-13T17:17:38.567Z,19.21
2023-05-13T17:20:08.188Z,19.15
2023-05-13T17:22:36.607Z,19.21
2023-05-13T17:25:05.882Z,19.16
2023-05-13T17:27:36.973Z,19.13
2023-05-13T17:30:06.140Z,19.03
2023-05-13T17:32:35.870Z,18.97
2023-05-13T17:35:06.999Z,18.87
2023-05-13T17:37:36.589Z,18.83
2023-05-13T17:40:05.301Z,18.84
2023-05-13T17:42:34.160Z,18.83
2023-05-13T17:45:02.928Z,18.71
2023-05-13T17:47:35.048Z,18.60
2023-05-13T17:50:06.035Z,18.65
2023-05-13T17:52:34.800Z,18.48
2023-05-13T17:55:03.190Z,18.44
2023-05-13T17:57:32.860Z,18.38
2023-05-13T18:00:06.093Z,18.23
2023-05-13T18:02:37.286Z,18.36
2023-05-13T18:05:08.066Z,18.20
2023-05-13T18:07:36.783Z,18.26
2023-05-13T18:10:06.143Z,18.34
2023-05-13T18:12:37.937Z,18.17
2023-05-13T18:15:08.363Z,18.08
2023-05-13T18:17:36.954Z,18.14
2023-05-13T18:20:10.920Z,18.00
2023-05-13T18:22:39.953Z,17.99
2023-05-13T18:25:10.247Z,17.98
2023-05-13T18:27:38.842Z,18.05
2023-05-13T18:30:08.415Z,17.91
2023-05-13T18:32:36.946Z,17.90
2023-05-13T18:35:07.752Z,18.01
2023-05-13T18:37:39.562Z,17.77
2023-05-13T18:40:11.333Z,17.76
2023-05-13T18:42:39.729Z,17.61
2023-05-13T18:45:09.101Z,17.68
2023-05-13T18:47:37.785Z,17.61
2023-05-13T18:50:08.355Z,17.60
2023-05-13T18:52:37.164Z,17.54
2023-05-13T18:55:08.791Z,17.49
2023-05-13T18:57:37.375Z,17.31
2023-05-13T19:00:09.688Z,17.44
2023-05-13T19:02:38.513Z,17.27
2023-05-13T19:05:09.720Z,17.27
2023-05-13T19:07:38.312Z,17.28
2023-05-13T19:10:07.591Z,17.23
2023-05-13T19:12:36.617Z,17.14
2023-05-13T19:15:05.794Z,17.06
2023-05-13T19:17:40.301Z,16.93
2023-05-13T19:20:11.430Z,17.04
2023-05-13T19:22:40.216Z,16.99
2023-05-13T19:25:09.116Z,16.90
2023-05-13T19:27:37.760Z,16.84
2023-05-13T19:30:07.306Z,16.78
2023-05-13T19:32:36.220Z,16.62
2023-05-13T19:35:05.202Z,16.70
2023-05-13T19:37:35.141Z,16.75
2023-05-13T19:40:03.476Z,16.68
2023-05-13T19:42:32.579Z,16.61
2023-05-13T19:45:01.132Z,16.51
2023-05-13T19:47:33.298Z,16.61
2023-05-13T19:50:01.989Z,16.47
2023-05-13T19:52:34.283Z,16.38
2023-05-13T19:55:02.863Z,16.33
2023-05-13T19:57:32.878Z,16.29
2023-05-13T20:00:01.406Z,16.35
2023-05-13T20:02:33.532Z,16.31
2023-05-13T20:05:02.294Z,16.35
2023-05-13T20:07:36.288Z,16.27
2023-05-13T20:10:05.358Z,16.26
2023-05-13T20:12:34.500Z,16.16
2023-05-13T20:15:03.684Z,16.08
2023-05-13T20:17:34.919Z,16.14
2023-05-13T20:20:05.311Z,16.13
2023-05-13T20:22:36.019Z,16.01
2023-05-13T20:25:04.543Z,15.97
2023-05-13T20:27:35.061Z,15.84
2023-05-13T20:30:04.635Z,15.83
2023-05-13T20:32:34.934Z,15.80
2023-05-13T20:35:03.802Z,15.76
2023-05-13T20:37:33.148Z,15.70
2023-05-13T20:40:03.996Z,15.65
2023-05-13T20:42:36.326Z,15.66
2023-05-13T20:45:08.771Z,15.55
2023-05-13T20:47:37.513Z,15.42
2023-05-13T20:50:06.878Z,15.34
2023-05-13T20:52:35.370Z,15.31
2023-05-13T20:55:06.024Z,15.27
2023-05-13T20:57:35.096Z,15.24
2023-05-13T21:00:06.222Z,15.09
2023-05-13T21:02:39.214Z,15.07
2023-05-13T21:05:08.524Z,15.00
2023-05-13T21:07:37.265Z,14.97
2023-05-13T21:10:08.400Z,14.92
2023-05-13T21:12:37.120Z,14.86
2023-05-13T21:15:06.103Z,14.72
2023-05-13T21:17:34.762Z,14.65
2023-05-13T21:20:04.270Z,14.62
2023-05-13T21:22:33.276Z,14.56
2023-05-13T21:25:01.940Z,14.54
2023-05-13T21:27:33.850Z,14.44
2023-05-13T21:30:05.523Z,14.40
2023-05-13T21:32:34.594Z,14.36
2023-05-13T21:35:03.227Z,14.32
2023-05-13T21:37:33.533Z,14.26
2023-05-13T21:40:01.915Z,14.21
2023-05-13T21:42:33.891Z,14.17
2023-05-13T21:45:02.565Z,14.06
2023-05-13T21:47:33.176Z,13.93
2023-05-13T21:50:01.858Z,13.81
2023-05-13T21:52:33.098Z,13.97
2023-05-13T21:55:01.813Z,13.94
2023-05-13T21:57:35.921Z,13.88
2023-05-13T22:00:07.317Z,13.87
2023-05-13T22:02:45.529Z,13.85
2023-05-13T22:05:18.196Z,13.79
2023-05-13T22:07:46.695Z,13.72
2023-05-13T22:10:15.172Z,13.67
2023-05-13T22:12:45.316Z,13.66
2023-05-13T22:15:13.954Z,13.67
2023-05-13T22:17:42.752Z,13.61
2023-05-13T22:20:16.843Z,13.61
2023-05-13T22:22:45.329Z,13.50
2023-05-13T22:25:13.686Z,13.43
2023-05-13T22:27:42.390Z,13.34
2023-05-13T22:30:13.017Z,13.37
2023-05-13T22:32:41.692Z,13.27
2023-05-13T22:35:10.938Z,13.19
2023-05-13T22:37:39.544Z,13.16
2023-05-13T22:40:10.561Z,13.17
2023-05-13T22:42:39.241Z,13.15
2023-05-13T22:45:12.733Z,13.02
2023-05-13T22:47:41.379Z,12.97
2023-05-13T22:50:12.323Z,12.93
2023-05-13T22:52:41.087Z,12.89
2023-05-13T22:55:10.281Z,12.87
2023-05-13T22:57:38.824Z,12.75
2023-05-13T23:00:08.548Z,12.62
2023-05-13T23:02:38.549Z,12.61
2023-05-13T23:05:08.502Z,12.58
2023-05-13T23:07:37.294Z,12.58
2023-05-13T23:10:06.698Z,12.41
2023-05-13T23:12:35.122Z,12.48
2023-05-13T23:15:04.152Z,12.39
2023-05-13T23:17:38.314Z,12.26
2023-05-13T23:20:08.299Z,12.26
2023-05-13T23:22:38.612Z,12.26
2023-05-13T23:25:08.444Z,12.18
2023-05-13T23:27:36.920Z,12.11
2023-05-13T23:30:07.308Z,11.89
2023-05-13T23:32:36.053Z,11.92
2023-05-13T23:35:06.951Z,11.85
2023-05-13T23:37:36.514Z,11.76
2023-05-13T23:40:05.657Z,11.83
2023-05-13T23:42:34.805Z,11.77
2023-05-13T23:45:03.451Z,11.80
2023-05-13T23:47:37.296Z,11.69
2023-05-13T23:50:08.488Z,11.63
2023-05-13T23:52:37.678Z,11.61
2023-05-13T23:55:09.493Z,11.56
2023-05-13T23:57:38.358Z,11.56
